Time;durP1;ratioP1;P1;durP2;ratioP2;P2;SDS_P1;SDS_P2;PMS_P1;PMS_P2;Temp;Humidity;BMP_temperature;BMP_pressure;BME280_temperature;BME280_humidity;BME280_pressure;Samples;Min_cycle;Max_cycle;Signal;HPM_P1;HPM_P2
2021/01/07 00:00:24;;;;;;;7.45;5.40;;;2.40;99.90;;;;;;5097556;28;20032;-80
2021/01/07 00:02:50;;;;;;;6.65;4.68;;;2.40;99.90;;;;;;5096590;28;20488;-78
2021/01/07 00:05:23;;;;;;;6.43;4.85;;;2.40;99.90;;;;;;5097960;28;20032;-78
2021/01/07 00:07:52;;;;;;;7.05;4.93;;;2.40;99.90;;;;;;5100874;28;20038;-80
2021/01/07 00:10:18;;;;;;;7.85;5.15;;;;;;;;;;5100110;28;20026;-78
2021/01/07 00:13:10;;;;;;;8.77;6.05;;;2.40;99.90;;;;;;5102775;28;20059;-79
2021/01/07 00:15:36;;;;;;;8.13;5.82;;;;;;;;;;5098936;28;20488;-78
2021/01/07 00:18:02;;;;;;;9.25;5.72;;;;;;;;;;5091533;28;20044;-77
2021/01/07 00:20:29;;;;;;;7.65;5.00;;;2.40;99.90;;;;;;5085406;28;20104;-78
2021/01/07 00:22:54;;;;;;;8.52;5.22;;;2.30;99.90;;;;;;5089190;28;20036;-78
2021/01/07 00:25:20;;;;;;;7.85;5.72;;;2.30;99.90;;;;;;5084754;28;20403;-78
2021/01/07 00:27:46;;;;;;;8.02;5.28;;;2.30;99.90;;;;;;5086781;28;20195;-78
2021/01/07 00:30:13;;;;;;;6.68;4.90;;;2.30;99.90;;;;;;5073536;28;20039;-78
2021/01/07 00:32:38;;;;;;;7.13;4.90;;;2.40;99.90;;;;;;5077765;28;20028;-78
2021/01/07 00:35:04;;;;;;;8.07;5.68;;;2.30;99.90;;;;;;5078450;28;20180;-78
2021/01/07 00:37:30;;;;;;;7.38;5.13;;;2.40;99.90;;;;;;5086128;28;20085;-78
2021/01/07 00:39:55;;;;;;;6.55;4.78;;;2.30;99.90;;;;;;5086132;28;20388;-78
2021/01/07 00:42:21;;;;;;;6.57;5.22;;;2.30;99.90;;;;;;5087092;28;20047;-77
2021/01/07 00:44:46;;;;;;;6.93;4.55;;;2.30;99.90;;;;;;5086457;28;20031;-77
2021/01/07 00:47:12;;;;;;;8.13;5.35;;;2.30;99.90;;;;;;5074983;28;20020;-78
2021/01/07 00:49:38;;;;;;;7.93;4.85;;;2.30;99.90;;;;;;5085278;28;20033;-78
2021/01/07 00:52:03;;;;;;;8.18;6.07;;;2.30;99.90;;;;;;5087229;28;20042;-78
2021/01/07 00:54:29;;;;;;;7.03;5.10;;;2.30;99.90;;;;;;5086395;28;20028;-77
2021/01/07 00:56:58;;;;;;;6.97;5.30;;;2.40;99.90;;;;;;5087010;28;20035;-78
2021/01/07 00:59:25;;;;;;;7.18;4.72;;;2.30;99.90;;;;;;5081205;28;20024;-78
2021/01/07 01:01:51;;;;;;;7.60;5.13;;;2.30;99.90;;;;;;5089444;28;20020;-78
2021/01/07 01:04:17;;;;;;;6.55;5.10;;;2.30;99.90;;;;;;5087203;28;20034;-78
2021/01/07 01:06:43;;;;;;;6.03;4.80;;;2.30;99.90;;;;;;5090169;28;20024;-78
2021/01/07 01:09:13;;;;;;;6.43;5.03;;;2.50;99.90;;;;;;5091157;28;20028;-77
2021/01/07 01:11:43;;;;;;;5.90;4.85;;;2.30;99.90;;;;;;5087392;28;20024;-77
2021/01/07 01:14:18;;;;;;;6.68;4.68;;;2.30;99.90;;;;;;5086856;28;20052;-77
2021/01/07 01:16:49;;;;;;;6.60;4.70;;;2.40;99.90;;;;;;5084886;28;20036;-77
2021/01/07 01:19:16;;;;;;;6.75;5.20;;;2.30;99.90;;;;;;5087271;28;21007;-78
2021/01/07 01:21:41;;;;;;;6.72;4.82;;;2.30;99.90;;;;;;5084679;28;20039;-77
2021/01/07 01:24:09;;;;;;;5.43;4.32;;;2.30;99.90;;;;;;5087959;28;20020;-77
2021/01/07 01:26:36;;;;;;;6.65;4.30;;;2.30;99.90;;;;;;5072104;28;20404;-77
2021/01/07 01:29:02;;;;;;;4.80;4.18;;;2.30;99.90;;;;;;5083593;28;20063;-77
2021/01/07 01:31:28;;;;;;;5.35;4.43;;;2.40;99.90;;;;;;5072958;28;20083;-77
2021/01/07 01:33:53;;;;;;;5.65;4.38;;;2.40;99.90;;;;;;5085822;28;20113;-77
2021/01/07 01:36:28;;;;;;;6.22;4.30;;;2.30;99.90;;;;;;5082070;28;20020;-78
2021/01/07 01:38:54;;;;;;;5.55;3.97;;;2.30;99.90;;;;;;5083599;28;20067;-78
2021/01/07 01:41:20;;;;;;;6.38;4.40;;;2.30;99.90;;;;;;5083427;28;20022;-78
2021/01/07 01:43:45;;;;;;;5.40;4.03;;;2.40;99.90;;;;;;5084302;28;20710;-77
2021/01/07 01:46:11;;;;;;;5.85;4.20;;;2.30;99.90;;;;;;5083217;28;20047;-77
2021/01/07 01:48:39;;;;;;;6.28;4.15;;;2.40;99.90;;;;;;5082243;28;20083;-77
2021/01/07 01:51:04;;;;;;;5.55;4.32;;;2.30;99.90;;;;;;5084661;28;20060;-78
2021/01/07 01:53:31;;;;;;;5.40;4.07;;;2.30;99.90;;;;;;5081905;28;20375;-78
2021/01/07 01:55:59;;;;;;;5.30;4.05;;;2.30;99.90;;;;;;5082794;28;20054;-78
2021/01/07 01:58:24;;;;;;;6.00;4.70;;;2.30;99.90;;;;;;5082194;28;20032;-78
2021/01/07 02:00:55;;;;;;;4.88;3.72;;;2.30;99.90;;;;;;5085939;28;20042;-78
2021/01/07 02:03:20;;;;;;;5.13;3.78;;;2.30;99.90;;;;;;5085368;28;20138;-77
2021/01/07 02:05:46;;;;;;;5.13;3.63;;;2.20;99.90;;;;;;5086126;28;20396;-78
2021/01/07 02:08:13;;;;;;;5.53;4.05;;;2.20;99.90;;;;;;5084449;28;20040;-78
2021/01/07 02:10:44;;;;;;;4.15;3.75;;;2.20;99.90;;;;;;5088231;28;20028;-77
2021/01/07 02:13:10;;;;;;;4.72;3.95;;;2.30;99.90;;;;;;5088723;28;20065;-78
2021/01/07 02:15:40;;;;;;;5.93;4.25;;;2.30;99.90;;;;;;5088017;28;20016;-78
2021/01/07 02:18:06;;;;;;;6.07;4.22;;;2.30;99.90;;;;;;5095412;28;20027;-78
2021/01/07 02:20:33;;;;;;;5.60;4.20;;;2.30;99.90;;;;;;5091688;28;20020;-78
2021/01/07 02:22:58;;;;;;;5.57;3.90;;;2.20;99.90;;;;;;5094989;28;20024;-78
2021/01/07 02:25:24;;;;;;;4.70;3.80;;;2.30;99.90;;;;;;5096176;28;20032;-78
2021/01/07 02:27:50;;;;;;;5.47;4.32;;;2.20;99.90;;;;;;5095734;28;20031;-77
2021/01/07 02:30:16;;;;;;;5.38;4.25;;;2.30;99.90;;;;;;5096344;28;20479;-78
2021/01/07 02:32:42;;;;;;;6.05;4.47;;;2.30;99.90;;;;;;5079248;28;20028;-78
2021/01/07 02:35:09;;;;;;;5.38;4.30;;;2.30;99.90;;;;;;5097514;28;20173;-77
2021/01/07 02:37:35;;;;;;;5.22;4.40;;;2.20;99.90;;;;;;5096764;28;20030;-78
2021/01/07 02:40:02;;;;;;;4.80;4.18;;;2.20;99.90;;;;;;5092127;28;20111;-78
2021/01/07 02:42:28;;;;;;;5.13;3.90;;;2.30;99.90;;;;;;5094780;28;20070;-77
2021/01/07 02:44:53;;;;;;;5.20;3.90;;;2.20;99.90;;;;;;5084802;28;20076;-77
2021/01/07 02:47:19;;;;;;;5.57;4.18;;;2.20;99.90;;;;;;5087042;28;20426;-78
2021/01/07 02:49:44;;;;;;;5.13;4.10;;;2.20;99.90;;;;;;5086111;28;20361;-78
2021/01/07 02:52:10;;;;;;;5.20;3.97;;;2.20;99.90;;;;;;5077630;28;20060;-78
2021/01/07 02:54:35;;;;;;;4.72;4.10;;;2.20;99.90;;;;;;5085597;28;20036;-78
2021/01/07 02:57:02;;;;;;;5.00;3.83;;;2.20;99.90;;;;;;5074817;28;20032;-78
2021/01/07 02:59:28;;;;;;;6.07;4.57;;;2.30;99.90;;;;;;5087472;28;20394;-78
2021/01/07 03:01:53;;;;;;;5.85;4.05;;;2.20;99.90;;;;;;5090458;28;20024;-78
2021/01/07 03:04:19;;;;;;;5.95;4.15;;;2.20;99.90;;;;;;5086780;28;20036;-78
2021/01/07 03:06:48;;;;;;;5.90;4.22;;;2.20;99.90;;;;;;5075037;28;20047;-78
2021/01/07 03:09:14;;;;;;;5.25;3.42;;;2.20;99.90;;;;;;5089685;28;20030;-78
2021/01/07 03:11:40;;;;;;;4.90;3.80;;;2.20;99.90;;;;;;5079787;28;20024;-78
2021/01/07 03:14:05;;;;;;;5.95;4.03;;;2.20;99.90;;;;;;5091164;28;20503;-78
2021/01/07 03:16:31;;;;;;;5.78;3.50;;;2.20;99.90;;;;;;5090075;28;20036;-78
2021/01/07 03:18:56;;;;;;;6.43;4.10;;;2.20;99.90;;;;;;5091378;28;20494;-79
2021/01/07 03:21:22;;;;;;;5.43;3.90;;;2.20;99.90;;;;;;5091102;28;20055;-77
2021/01/07 03:23:48;;;;;;;5.53;3.88;;;2.20;99.90;;;;;;5089211;28;20059;-78
2021/01/07 03:26:14;;;;;;;6.97;4.95;;;2.20;99.90;;;;;;5075379;28;20058;-78
2021/01/07 03:28:40;;;;;;;7.28;4.85;;;2.10;99.90;;;;;;5094421;28;20032;-78
2021/01/07 03:31:06;;;;;;;6.82;4.65;;;2.10;99.90;;;;;;5094341;28;20031;-78
2021/01/07 03:33:31;;;;;;;6.13;4.10;;;2.10;99.90;;;;;;5091952;28;20040;-79
2021/01/07 03:35:56;;;;;;;6.28;4.22;;;2.00;99.90;;;;;;5092229;28;20034;-78
2021/01/07 03:38:22;;;;;;;6.18;4.45;;;2.00;99.90;;;;;;5091578;28;20100;-78
2021/01/07 03:40:47;;;;;;;6.65;4.50;;;2.00;99.90;;;;;;5093145;28;20024;-78
2021/01/07 03:43:14;;;;;;;7.07;5.03;;;2.00;99.90;;;;;;5091200;28;20032;-78
2021/01/07 03:45:40;;;;;;;6.25;4.53;;;2.00;99.90;;;;;;5088116;28;20040;-78
2021/01/07 03:48:07;;;;;;;8.07;5.13;;;2.10;99.90;;;;;;5085636;28;20066;-78
2021/01/07 03:50:33;;;;;;;10.88;5.95;;;2.10;99.90;;;;;;5091408;28;20085;-78
2021/01/07 03:52:59;;;;;;;7.68;5.15;;;2.10;99.90;;;;;;5079703;28;20132;-78
2021/01/07 03:55:24;;;;;;;7.43;5.22;;;2.10;99.90;;;;;;5091159;28;20031;-78
2021/01/07 03:57:50;;;;;;;8.45;5.20;;;2.20;99.90;;;;;;5092601;28;20436;-78
2021/01/07 04:00:16;;;;;;;7.40;4.63;;;2.20;99.90;;;;;;5092164;28;20495;-78
2021/01/07 04:02:41;;;;;;;7.88;5.07;;;2.20;99.90;;;;;;5079955;28;20484;-79
2021/01/07 04:05:07;;;;;;;8.32;5.13;;;2.20;99.90;;;;;;5093925;28;20024;-79
2021/01/07 04:07:33;;;;;;;8.43;5.28;;;2.20;99.90;;;;;;5078210;28;20035;-79
2021/01/07 04:09:58;;;;;;;8.32;4.90;;;2.10;99.90;;;;;;5089797;28;20138;-79
2021/01/07 04:12:24;;;;;;;7.45;5.50;;;2.10;99.90;;;;;;5090935;28;20039;-79
2021/01/07 04:14:49;;;;;;;9.93;6.15;;;2.10;99.90;;;;;;5091085;28;20106;-78
2021/01/07 04:17:15;;;;;;;8.70;5.68;;;2.10;99.90;;;;;;5087719;28;21859;-78
2021/01/07 04:19:42;;;;;;;8.43;5.90;;;2.10;99.90;;;;;;5089105;28;20055;-78
2021/01/07 04:22:07;;;;;;;7.70;5.57;;;2.10;99.90;;;;;;5091123;28;20033;-78
2021/01/07 04:24:33;;;;;;;9.75;6.75;;;2.10;99.90;;;;;;5096399;28;20038;-78
2021/01/07 04:27:02;;;;;;;9.57;6.60;;;2.10;99.90;;;;;;5098109;28;20042;-78
2021/01/07 04:29:27;;;;;;;9.20;5.95;;;2.10;99.90;;;;;;5094307;28;20709;-79
2021/01/07 04:31:53;;;;;;;8.63;5.63;;;2.20;99.90;;;;;;5089990;28;20031;-78
2021/01/07 04:34:25;;;;;;;9.00;5.65;;;2.20;99.90;;;;;;5090708;28;20803;-79
2021/01/07 04:36:52;;;;;;;9.63;6.60;;;2.20;99.90;;;;;;5091697;28;20532;-78
2021/01/07 04:39:20;;;;;;;10.82;6.82;;;2.20;99.90;;;;;;5087654;28;21548;-77
2021/01/07 04:41:45;;;;;;;12.15;7.35;;;2.20;99.90;;;;;;5088900;28;20081;-78
2021/01/07 04:44:13;;;;;;;12.20;7.38;;;2.20;99.90;;;;;;5091052;28;20454;-77
2021/01/07 04:46:39;;;;;;;12.23;7.28;;;2.20;99.90;;;;;;5091241;28;20024;-78
2021/01/07 04:49:05;;;;;;;11.10;7.43;;;2.20;99.90;;;;;;5092745;28;20032;-78
2021/01/07 04:51:30;;;;;;;11.27;7.13;;;2.20;99.90;;;;;;5092546;28;20511;-78
2021/01/07 04:53:57;;;;;;;9.88;6.35;;;2.20;99.90;;;;;;5090041;28;20036;-78
2021/01/07 04:56:22;;;;;;;10.25;6.65;;;2.30;99.90;;;;;;5092159;28;20028;-78
2021/01/07 04:58:48;;;;;;;13.23;6.95;;;2.20;99.90;;;;;;5089585;28;20510;-78
2021/01/07 05:01:14;;;;;;;9.38;5.85;;;2.20;99.90;;;;;;5088801;28;20020;-77
2021/01/07 05:03:45;;;;;;;8.90;5.65;;;2.20;99.90;;;;;;5088553;28;20024;-77
2021/01/07 05:06:10;;;;;;;11.90;6.57;;;2.20;99.90;;;;;;5087866;28;20032;-78
2021/01/07 05:08:36;;;;;;;10.65;6.93;;;2.20;99.90;;;;;;5090665;28;20404;-77
2021/01/07 05:11:01;;;;;;;11.45;6.43;;;2.20;99.90;;;;;;5091613;28;20501;-77
2021/01/07 05:13:27;;;;;;;10.35;6.65;;;2.30;99.90;;;;;;5089662;28;20044;-78
2021/01/07 05:15:52;;;;;;;10.05;6.30;;;2.20;99.90;;;;;;5090371;28;20056;-77
2021/01/07 05:18:18;;;;;;;8.93;5.68;;;2.20;99.90;;;;;;5088991;28;20028;-78
2021/01/07 05:20:43;;;;;;;8.70;5.82;;;2.20;99.90;;;;;;5092279;28;20480;-77
2021/01/07 05:23:10;;;;;;;11.45;7.15;;;2.20;99.90;;;;;;5092741;28;20027;-78
2021/01/07 05:25:42;;;;;;;8.85;6.30;;;2.20;99.90;;;;;;5097245;28;20024;-78
2021/01/07 05:28:08;;;;;;;9.55;5.68;;;2.20;99.90;;;;;;5092985;28;20024;-78
2021/01/07 05:30:34;;;;;;;11.30;6.55;;;2.30;99.90;;;;;;5096604;28;20553;-78
2021/01/07 05:33:09;;;;;;;9.68;6.70;;;2.20;99.90;;;;;;5090019;28;20028;-77
2021/01/07 05:35:36;;;;;;;10.30;6.07;;;2.20;99.90;;;;;;5076752;28;20723;-77
2021/01/07 05:38:08;;;;;;;13.15;6.95;;;2.20;99.90;;;;;;5087503;28;20503;-77
2021/01/07 05:40:37;;;;;;;11.00;6.80;;;2.20;99.90;;;;;;5090693;28;20051;-77
2021/01/07 05:43:10;;;;;;;10.98;7.00;;;2.20;99.90;;;;;;5086074;28;20032;-77
2021/01/07 05:45:40;;;;;;;14.20;7.95;;;2.20;99.90;;;;;;5074517;28;20027;-78
2021/01/07 05:48:06;;;;;;;12.75;6.78;;;2.10;99.90;;;;;;5088477;28;20023;-77
2021/01/07 05:50:39;;;;;;;13.35;7.70;;;2.10;99.90;;;;;;5087273;28;20523;-78
2021/01/07 05:53:05;;;;;;;11.73;7.13;;;2.20;99.90;;;;;;5087291;28;20408;-78
2021/01/07 05:55:31;;;;;;;10.88;6.45;;;2.20;99.90;;;;;;5089328;28;20035;-77
2021/01/07 05:58:01;;;;;;;10.45;6.63;;;2.20;99.90;;;;;;5085711;28;20161;-78
2021/01/07 06:00:33;;;;;;;12.02;7.15;;;2.20;99.90;;;;;;5086928;28;20468;-77
2021/01/07 06:03:01;;;;;;;16.40;8.85;;;2.10;99.90;;;;;;5087409;28;20102;-78
2021/01/07 06:05:28;;;;;;;11.73;7.63;;;2.10;99.90;;;;;;5089626;28;20031;-78
2021/01/07 06:07:58;;;;;;;12.60;8.63;;;2.10;99.90;;;;;;5087905;28;20040;-77
2021/01/07 06:10:24;;;;;;;11.00;6.65;;;2.10;99.90;;;;;;5086222;28;20050;-78
2021/01/07 06:12:51;;;;;;;13.98;7.53;;;2.10;99.90;;;;;;5077463;28;20035;-77
2021/01/07 06:15:21;;;;;;;11.82;7.90;;;2.10;99.90;;;;;;5090570;28;20154;-77
2021/01/07 06:17:47;;;;;;;13.80;7.95;;;2.20;99.90;;;;;;5073492;28;20475;-78
2021/01/07 06:20:21;;;;;;;14.13;7.90;;;2.20;99.90;;;;;;5085666;28;20114;-78
2021/01/07 06:22:49;;;;;;;11.30;6.97;;;2.20;99.90;;;;;;5089301;28;20537;-77
2021/01/07 06:25:18;;;;;;;15.00;7.85;;;2.20;99.90;;;;;;5088067;28;20043;-77
2021/01/07 06:27:45;;;;;;;10.98;6.63;;;2.20;99.90;;;;;;5085668;28;20060;-77
2021/01/07 06:30:11;;;;;;;12.07;7.32;;;2.10;99.90;;;;;;5070104;28;20036;-77
2021/01/07 06:32:40;;;;;;;12.85;9.02;;;2.20;99.90;;;;;;5091592;28;20032;-77
2021/01/07 06:35:10;;;;;;;12.88;7.55;;;2.20;99.90;;;;;;5085627;28;20042;-77
2021/01/07 06:37:38;;;;;;;11.32;6.60;;;2.20;99.90;;;;;;5092109;28;20099;-78
2021/01/07 06:40:12;;;;;;;15.10;7.45;;;2.20;99.90;;;;;;5090827;28;20032;-77
2021/01/07 06:42:45;;;;;;;13.73;6.88;;;2.20;99.90;;;;;;5095653;28;20050;-78
2021/01/07 06:45:12;;;;;;;10.80;6.30;;;2.20;99.90;;;;;;5074278;28;20027;-78
2021/01/07 06:47:38;;;;;;;11.75;7.65;;;2.20;99.90;;;;;;5087274;28;20024;-78
2021/01/07 06:50:05;;;;;;;15.05;8.02;;;2.20;99.90;;;;;;5089549;28;20037;-78
2021/01/07 06:52:45;;;;;;;11.60;7.38;;;2.20;99.90;;;;;;5092360;28;20438;-77
2021/01/07 06:55:13;;;;;;;12.40;8.32;;;2.20;99.90;;;;;;5073659;28;20028;-79
2021/01/07 06:57:43;;;;;;;11.77;7.75;;;2.10;99.90;;;;;;5073886;28;20017;-77
2021/01/07 07:00:10;;;;;;;12.43;7.53;;;2.10;99.90;;;;;;5089755;28;20028;-77
2021/01/07 07:02:36;;;;;;;11.55;7.45;;;2.10;99.90;;;;;;5086831;28;20028;-76
2021/01/07 07:05:06;;;;;;;12.07;7.55;;;2.20;99.90;;;;;;5087800;28;20693;-78
2021/01/07 07:07:38;;;;;;;12.98;7.55;;;2.10;99.90;;;;;;5091408;28;20024;-77
2021/01/07 07:10:18;;;;;;;12.82;7.25;;;2.10;99.90;;;;;;5092827;28;20032;-78
2021/01/07 07:12:48;;;;;;;11.63;7.15;;;2.10;99.90;;;;;;5088249;28;20446;-77
2021/01/07 07:15:16;;;;;;;12.55;7.85;;;2.20;99.90;;;;;;5090174;28;20096;-77
2021/01/07 07:17:46;;;;;;;11.65;7.53;;;2.20;99.90;;;;;;5095584;28;20020;-77
2021/01/07 07:20:22;;;;;;;13.18;7.90;;;2.10;99.90;;;;;;5083141;28;20032;-78
2021/01/07 07:22:48;;;;;;;11.30;7.10;;;2.10;99.90;;;;;;5099962;28;20028;-77
2021/01/07 07:25:22;;;;;;;11.10;7.45;;;2.20;99.90;;;;;;5096977;28;20093;-77
2021/01/07 07:28:04;;;;;;;12.32;7.00;;;2.20;99.90;;;;;;5096940;28;20096;-78
2021/01/07 07:30:34;;;;;;;11.73;7.22;;;2.20;99.90;;;;;;5092309;28;20029;-78
2021/01/07 07:33:01;;;;;;;12.33;7.63;;;2.20;99.90;;;;;;5087838;28;20028;-78
2021/01/07 07:35:28;;;;;;;12.35;7.80;;;2.10;99.90;;;;;;5091079;28;20025;-78
2021/01/07 07:37:55;;;;;;;10.68;7.43;;;2.20;99.90;;;;;;5093878;28;20063;-77
2021/01/07 07:40:36;;;;;;;13.80;7.97;;;2.20;99.90;;;;;;5089393;28;20028;-78
2021/01/07 07:43:03;;;;;;;12.60;7.07;;;2.20;99.90;;;;;;5091290;28;20035;-79
2021/01/07 07:45:33;;;;;;;11.45;7.47;;;2.20;99.90;;;;;;5074721;28;20028;-78
2021/01/07 07:48:00;;;;;;;14.63;8.43;;;2.20;99.90;;;;;;5087073;28;20033;-78
2021/01/07 07:50:28;;;;;;;12.52;8.00;;;2.20;99.90;;;;;;5086587;28;20110;-78
2021/01/07 07:53:06;;;;;;;14.27;8.40;;;2.20;99.90;;;;;;5092906;28;20428;-77
2021/01/07 07:55:39;;;;;;;13.45;8.05;;;2.20;99.90;;;;;;5077336;28;20081;-77
2021/01/07 07:58:16;;;;;;;13.45;7.18;;;2.20;99.90;;;;;;5089497;28;20043;-78
2021/01/07 08:00:55;;;;;;;13.02;7.85;;;2.20;99.90;;;;;;5101459;28;20089;-78
2021/01/07 08:03:31;;;;;;;13.48;7.50;;;2.30;99.90;;;;;;5095250;28;20028;-78
2021/01/07 08:05:58;;;;;;;12.52;7.22;;;2.30;99.90;;;;;;5091672;28;20025;-78
2021/01/07 08:08:32;;;;;;;13.73;8.27;;;2.30;99.90;;;;;;5091771;28;20055;-78
2021/01/07 08:11:00;;;;;;;12.57;7.80;;;2.30;99.90;;;;;;5096733;28;20028;-78
2021/01/07 08:13:28;;;;;;;12.07;7.47;;;2.30;99.90;;;;;;5076529;28;20046;-81
2021/01/07 08:15:59;;;;;;;12.43;7.30;;;2.30;99.90;;;;;;5091108;28;20058;-78
2021/01/07 08:18:27;;;;;;;14.20;6.95;;;2.40;99.90;;;;;;5088521;28;20131;-79
2021/01/07 08:21:14;;;;;;;15.32;8.93;;;2.30;99.90;;;;;;5069192;28;20043;-78
2021/01/07 08:23:39;;;;;;;12.65;7.10;;;2.40;99.90;;;;;;5078316;28;20040;-78
2021/01/07 08:26:07;;;;;;;11.63;6.90;;;2.40;99.90;;;;;;5077719;28;20025;-77
2021/01/07 08:28:41;;;;;;;9.75;6.78;;;2.40;99.90;;;;;;5075065;28;20020;-78
2021/01/07 08:31:12;;;;;;;10.43;7.22;;;2.40;99.90;;;;;;5075975;28;20028;-77
2021/01/07 08:33:39;;;;;;;12.38;7.05;;;2.30;99.90;;;;;;5058669;28;20471;-78
2021/01/07 08:36:09;;;;;;;10.88;7.05;;;3.30;99.90;;;;;;5085240;28;20039;-78
2021/01/07 08:38:35;;;;;;;15.10;7.00;;;2.40;99.90;;;;;;5073465;28;20062;-79
2021/01/07 08:41:23;;;;;;;14.98;7.45;;;2.40;99.90;;;;;;5076842;28;20028;-78
2021/01/07 08:43:51;;;;;;;13.98;7.38;;;2.40;99.90;;;;;;5094120;28;20028;-79
2021/01/07 08:46:27;;;;;;;15.02;8.73;;;2.40;99.90;;;;;;5094447;28;20135;-80
2021/01/07 08:49:02;;;;;;;14.57;8.07;;;2.40;99.90;;;;;;5070637;28;20084;-80
2021/01/07 08:51:38;;;;;;;11.93;7.60;;;2.40;99.90;;;;;;5085472;28;20056;-80
2021/01/07 08:54:33;;;;;;;11.75;7.03;;;2.40;99.90;;;;;;5098136;28;20036;-78
2021/01/07 08:57:03;;;;;;;11.45;7.53;;;2.50;99.90;;;;;;5094105;28;20053;-80
2021/01/07 08:59:32;;;;;;;10.65;7.13;;;2.50;99.90;;;;;;5088615;28;20476;-80
2021/01/07 09:02:11;;;;;;;12.52;6.82;;;2.50;99.90;;;;;;5070031;28;20028;-80
2021/01/07 09:04:41;;;;;;;11.02;6.43;;;2.50;99.90;;;;;;5083144;28;20086;-80
2021/01/07 09:07:09;;;;;;;11.70;7.60;;;2.50;99.90;;;;;;5072988;28;20086;-79
2021/01/07 09:09:39;;;;;;;10.68;7.03;;;2.60;99.90;;;;;;5080458;28;20036;-80
2021/01/07 09:12:14;;;;;;;10.43;7.03;;;2.60;99.90;;;;;;5100513;28;20024;-80
2021/01/07 09:14:51;;;;;;;10.48;7.05;;;2.60;99.90;;;;;;5092122;28;20393;-79
2021/01/07 09:17:19;;;;;;;9.32;6.28;;;2.40;99.90;;;;;;5093543;28;20024;-79
2021/01/07 09:19:46;;;;;;;14.77;8.30;;;2.50;99.90;;;;;;5090035;28;20032;-80
2021/01/07 09:22:23;;;;;;;13.82;8.68;;;2.60;99.90;;;;;;5092044;28;20032;-79
2021/01/07 09:24:49;;;;;;;8.98;5.80;;;2.60;99.90;;;;;;5098931;28;20032;-79
2021/01/07 09:27:21;;;;;;;10.27;5.35;;;2.60;99.90;;;;;;5093137;28;20102;-79
2021/01/07 09:29:47;;;;;;;8.15;5.47;;;2.60;99.90;;;;;;5091543;28;20052;-79
2021/01/07 09:32:14;;;;;;;10.48;6.43;;;2.60;99.90;;;;;;5089158;28;20035;-80
2021/01/07 09:34:40;;;;;;;12.30;6.95;;;2.70;99.90;;;;;;5072367;28;20384;-79
2021/01/07 09:37:11;;;;;;;13.68;7.13;;;2.70;99.90;;;;;;5098683;28;20024;-80
2021/01/07 09:39:38;;;;;;;12.93;7.75;;;2.60;99.90;;;;;;5075322;28;20021;-81
2021/01/07 09:42:05;;;;;;;10.52;6.05;;;2.60;99.90;;;;;;5099280;28;20039;-80
2021/01/07 09:44:31;;;;;;;10.75;5.82;;;2.60;99.90;;;;;;5088366;28;20024;-80
2021/01/07 09:46:57;;;;;;;12.85;6.95;;;2.70;99.90;;;;;;5090580;28;20020;-79
2021/01/07 09:49:24;;;;;;;11.60;7.20;;;2.70;99.90;;;;;;5091758;28;20035;-79
2021/01/07 09:51:50;;;;;;;13.05;6.70;;;2.80;99.90;;;;;;5088503;28;20044;-80
2021/01/07 09:54:16;;;;;;;8.18;5.50;;;2.80;99.90;;;;;;5085477;28;20035;-79
2021/01/07 09:56:42;;;;;;;9.63;6.03;;;2.70;99.90;;;;;;5067847;28;20028;-79
2021/01/07 09:59:08;;;;;;;11.38;6.35;;;2.80;99.90;;;;;;5089332;28;20089;-78
2021/01/07 10:01:34;;;;;;;8.98;5.75;;;2.80;99.90;;;;;;5090325;28;20027;-79
2021/01/07 10:03:59;;;;;;;9.27;6.22;;;2.80;99.90;;;;;;5106147;28;20031;-82
2021/01/07 10:06:25;;;;;;;11.65;7.03;;;2.80;99.90;;;;;;5096135;28;20412;-82
2021/01/07 10:08:51;;;;;;;11.70;7.25;;;2.80;99.90;;;;;;5104046;28;20084;-81
2021/01/07 10:11:19;;;;;;;11.63;6.72;;;2.90;99.90;;;;;;5111016;28;20038;-80
2021/01/07 10:13:45;;;;;;;7.75;4.78;;;2.90;99.90;;;;;;5102225;28;20074;-81
2021/01/07 10:16:14;;;;;;;20.52;9.77;;;2.90;99.90;;;;;;5088312;28;20032;-80
2021/01/07 10:18:41;;;;;;;9.80;4.80;;;2.80;99.90;;;;;;5099982;28;20032;-80
2021/01/07 10:21:09;;;;;;;15.75;6.38;;;2.80;99.90;;;;;;5100119;28;20038;-80
2021/01/07 10:23:35;;;;;;;8.90;5.60;;;2.90;99.90;;;;;;5102570;28;20024;-83
2021/01/07 10:26:02;;;;;;;8.82;5.55;;;2.90;99.90;;;;;;5101737;28;20036;-76
2021/01/07 10:28:29;;;;;;;7.53;5.22;;;2.90;99.90;;;;;;5107174;28;20036;-81
2021/01/07 10:30:55;;;;;;;9.80;6.00;;;2.90;99.90;;;;;;5096873;28;20017;-80
2021/01/07 10:33:21;;;;;;;7.80;5.00;;;2.90;99.90;;;;;;5089960;28;20062;-80
2021/01/07 10:35:48;;;;;;;9.32;5.13;;;2.90;99.90;;;;;;5088511;28;20039;-77
2021/01/07 10:38:22;;;;;;;12.95;6.38;;;3.00;99.90;;;;;;5098510;28;20748;-79
2021/01/07 10:40:50;;;;;;;15.43;5.65;;;2.90;99.90;;;;;;5097475;28;20028;-79
2021/01/07 10:43:19;;;;;;;8.98;5.60;;;2.90;99.90;;;;;;5094680;28;20044;-78
2021/01/07 10:45:45;;;;;;;7.45;4.53;;;2.90;99.90;;;;;;5087518;28;20034;-77
2021/01/07 10:48:14;;;;;;;10.48;5.50;;;2.90;99.90;;;;;;5101890;28;20092;-79
2021/01/07 10:50:43;;;;;;;7.57;4.85;;;3.00;99.90;;;;;;5105754;28;20054;-80
2021/01/07 10:53:12;;;;;;;10.98;5.82;;;2.90;99.90;;;;;;5104893;28;20039;-77
2021/01/07 10:55:57;;;;;;;8.75;4.65;;;3.00;99.90;;;;;;5100730;28;20040;-79
2021/01/07 10:58:38;;;;;;;8.38;5.03;;;3.00;99.90;;;;;;5101146;28;20032;-79
2021/01/07 11:01:32;;;;;;;13.03;6.03;;;2.90;99.90;;;;;;5104003;28;20043;-77
2021/01/07 11:04:36;;;;;;;7.32;4.60;;;2.90;99.90;;;;;;5079569;28;20020;-77
2021/01/07 11:07:16;;;;;;;6.75;4.53;;;3.00;99.90;;;;;;5068558;28;20051;-79
2021/01/07 11:10:18;;;;;;;;;;;;;;;;;;;;;
2021/01/07 11:12:57;;;;;;;8.07;5.13;;;2.90;99.90;;;;;;5084387;28;20562;-78
2021/01/07 11:15:44;;;;;;;11.05;6.43;;;3.00;99.90;;;;;;5084289;28;20099;-76
2021/01/07 11:18:14;;;;;;;9.18;4.90;;;2.90;99.90;;;;;;5079403;28;20028;-78
2021/01/07 11:20:48;;;;;;;6.28;4.50;;;2.80;99.90;;;;;;5081251;28;20043;-77
2021/01/07 11:23:17;;;;;;;6.68;4.28;;;3.00;99.90;;;;;;5089914;28;20063;-79
2021/01/07 11:25:46;;;;;;;6.20;4.40;;;2.90;99.90;;;;;;5087760;28;20028;-78
2021/01/07 11:28:15;;;;;;;7.20;4.85;;;2.80;99.90;;;;;;5068707;28;20409;-78
2021/01/07 11:30:40;;;;;;;9.23;5.03;;;3.00;99.90;;;;;;5096068;28;20027;-78
2021/01/07 11:33:07;;;;;;;6.43;4.55;;;2.90;99.90;;;;;;5095693;28;20044;-79
2021/01/07 11:35:33;;;;;;;8.73;4.90;;;2.90;99.90;;;;;;5082228;28;20040;-78
2021/01/07 11:38:01;;;;;;;8.05;5.28;;;2.90;99.90;;;;;;5094500;28;20051;-77
2021/01/07 11:40:43;;;;;;;8.68;6.45;;;2.90;99.90;;;;;;5076814;28;20067;-78
2021/01/07 11:43:46;;;;;;;16.23;11.82;;;2.90;99.90;;;;;;5097402;28;20044;-78
2021/01/07 11:46:16;;;;;;;9.50;5.70;;;3.00;99.90;;;;;;5095195;28;20042;-77
2021/01/07 11:48:46;;;;;;;9.02;6.15;;;3.00;99.90;;;;;;5095412;28;20032;-78
2021/01/07 11:51:13;;;;;;;9.70;5.55;;;;;;;;;;5065924;28;20109;-80
2021/01/07 11:53:39;;;;;;;7.18;5.57;;;2.90;99.90;;;;;;5074426;28;20044;-80
2021/01/07 11:56:07;;;;;;;8.45;5.95;;;2.90;99.90;;;;;;5081370;28;20040;-78
2021/01/07 11:58:35;;;;;;;8.02;6.10;;;2.90;99.90;;;;;;5076452;28;20024;-79
2021/01/07 12:01:05;;;;;;;8.50;5.78;;;2.90;99.90;;;;;;5080263;28;20085;-80
2021/01/07 12:03:32;;;;;;;8.60;5.82;;;3.00;99.90;;;;;;5069208;28;20036;-79
2021/01/07 12:06:06;;;;;;;8.38;6.40;;;3.00;99.90;;;;;;5076824;28;20051;-79
2021/01/07 12:08:49;;;;;;;9.25;5.50;;;2.90;99.90;;;;;;5078479;28;20025;-78
2021/01/07 12:11:45;;;;;;;7.22;5.13;;;2.90;99.90;;;;;;5079478;28;20081;-81
2021/01/07 12:15:04;;;;;;;8.52;5.78;;;2.90;99.90;;;;;;5075559;28;20039;-80
2021/01/07 12:17:35;;;;;;;8.30;6.25;;;3.00;99.90;;;;;;5078356;28;20044;-78
2021/01/07 12:20:02;;;;;;;6.78;5.45;;;;;;;;;;5079440;28;20114;-80
2021/01/07 12:22:30;;;;;;;9.13;6.05;;;2.90;99.90;;;;;;5081182;28;20203;-78
2021/01/07 12:24:56;;;;;;;8.80;6.43;;;2.20;99.90;;;;;;5076380;28;20107;-79
2021/01/07 12:27:24;;;;;;;8.27;5.70;;;3.10;99.90;;;;;;5079409;28;20025;-79
2021/01/07 12:29:50;;;;;;;7.85;5.93;;;;;;;;;;5077317;28;20476;-79
2021/01/07 12:32:33;;;;;;;8.85;6.20;;;3.00;99.90;;;;;;5069495;28;20051;-78
2021/01/07 12:35:17;;;;;;;7.93;5.68;;;2.90;99.90;;;;;;5074414;28;20044;-78
2021/01/07 12:38:00;;;;;;;8.07;5.75;;;2.80;99.90;;;;;;5075486;28;20036;-77
2021/01/07 12:40:30;;;;;;;7.50;5.60;;;2.90;99.90;;;;;;5076341;28;20088;-79
2021/01/07 12:42:59;;;;;;;9.15;6.75;;;2.90;99.90;;;;;;5066245;28;20025;-80
2021/01/07 12:45:27;;;;;;;9.63;6.43;;;2.90;99.90;;;;;;5079223;28;20107;-80
2021/01/07 12:47:54;;;;;;;10.68;6.75;;;2.60;99.90;;;;;;5084158;28;20020;-81
2021/01/07 12:50:21;;;;;;;9.90;7.10;;;2.90;99.90;;;;;;5085131;28;20057;-79
2021/01/07 12:52:47;;;;;;;7.50;5.72;;;2.80;99.90;;;;;;5100442;28;20381;-80
2021/01/07 12:55:13;;;;;;;7.05;5.55;;;2.80;99.90;;;;;;5100507;28;20032;-81
2021/01/07 12:58:13;;;;;;;8.07;5.72;;;2.90;99.90;;;;;;5100052;28;20524;-81
2021/01/07 13:00:53;;;;;;;9.45;6.55;;;2.80;99.90;;;;;;5098190;28;20457;-81
2021/01/07 13:03:59;;;;;;;8.00;6.07;;;2.80;99.90;;;;;;5104858;28;20043;-80
2021/01/07 13:06:46;;;;;;;9.25;6.40;;;2.80;99.90;;;;;;5051166;28;20249;-81